createdAt,value
2023-03-27T00:04:08.965Z,22.78
2023-03-27T00:09:10.418Z,22.80
2023-03-27T00:14:11.806Z,22.78
2023-03-27T00:19:13.481Z,22.82
2023-03-27T00:24:15.759Z,22.77
2023-03-27T00:29:18.055Z,22.75
2023-03-27T00:34:19.444Z,22.76
2023-03-27T00:39:20.878Z,22.76
2023-03-27T00:44:24.922Z,22.77
2023-03-27T00:49:26.967Z,22.80
2023-03-27T00:54:29.937Z,22.81
2023-03-27T00:59:34.585Z,22.77
2023-03-27T01:04:36.959Z,22.77
2023-03-27T01:09:38.823Z,22.75
2023-03-27T01:15:02.399Z,22.75
2023-03-27T01:20:07.153Z,22.73
2023-03-27T01:25:45.970Z,22.70
2023-03-27T01:30:57.685Z,22.70
2023-03-27T01:36:04.615Z,22.70
2023-03-27T01:41:25.399Z,22.70
2023-03-27T01:46:29.487Z,22.67
2023-03-27T01:51:42.881Z,22.70
2023-03-27T01:56:53.262Z,22.68
2023-03-27T02:02:02.999Z,22.67
2023-03-27T02:07:07.655Z,22.68
2023-03-27T02:12:15.296Z,22.69
2023-03-27T02:17:16.737Z,22.65
2023-03-27T02:22:18.454Z,22.69
2023-03-27T02:27:40.530Z,22.70
2023-03-27T02:32:41.799Z,22.64
2023-03-27T02:38:03.412Z,22.67
2023-03-27T02:43:11.067Z,22.69
2023-03-27T02:48:19.906Z,22.69
2023-03-27T02:53:22.579Z,22.68
2023-03-27T02:58:35.544Z,22.71
2023-03-27T03:04:01.538Z,22.68
2023-03-27T03:09:06.277Z,22.68
2023-03-27T03:14:07.783Z,22.67
2023-03-27T03:19:09.238Z,22.66
2023-03-27T03:24:10.742Z,22.70
2023-03-27T03:29:12.927Z,22.70
2023-03-27T03:34:16.639Z,22.69
2023-03-27T03:39:18.270Z,22.69
2023-03-27T03:44:19.762Z,22.68
2023-03-27T03:49:21.163Z,22.70
2023-03-27T03:54:22.823Z,22.70
2023-03-27T03:59:24.403Z,22.74
2023-03-27T04:04:25.804Z,22.68
2023-03-27T04:09:27.381Z,22.70
2023-03-27T04:14:28.785Z,22.71
2023-03-27T04:19:30.346Z,22.70
2023-03-27T04:24:31.718Z,22.69
2023-03-27T04:29:34.092Z,22.67
2023-03-27T04:34:38.234Z,22.72
2023-03-27T04:39:42.704Z,22.70
2023-03-27T04:44:45.957Z,22.68
2023-03-27T04:49:50.689Z,22.70
2023-03-27T04:54:52.086Z,22.74
2023-03-27T04:59:53.471Z,22.73
2023-03-27T05:05:02.037Z,22.72
2023-03-27T05:10:04.513Z,22.72
2023-03-27T05:15:07.176Z,22.69
2023-03-27T05:20:12.275Z,22.68
2023-03-27T05:25:13.692Z,22.68
2023-03-27T05:30:16.065Z,22.71
2023-03-27T05:35:18.715Z,22.69
2023-03-27T05:40:25.472Z,22.70
2023-03-27T05:45:26.934Z,22.72
2023-03-27T05:50:30.205Z,22.70
2023-03-27T05:55:31.898Z,22.68
2023-03-27T06:00:34.219Z,22.69
2023-03-27T06:05:35.939Z,22.68
2023-03-27T06:10:41.915Z,22.67
2023-03-27T06:15:43.443Z,22.69
2023-03-27T06:20:44.875Z,22.66
2023-03-27T06:25:47.433Z,22.70
2023-03-27T06:30:48.929Z,22.68
2023-03-27T06:35:53.166Z,22.69
2023-03-27T06:40:55.838Z,22.71
2023-03-27T06:45:58.134Z,22.67
2023-03-27T06:50:59.890Z,22.69
2023-03-27T06:56:01.589Z,22.69
2023-03-27T07:01:03.430Z,22.65
2023-03-27T07:06:05.763Z,22.61
2023-03-27T07:11:11.701Z,22.65
2023-03-27T07:16:13.745Z,22.62
2023-03-27T07:21:15.772Z,22.63
2023-03-27T07:26:17.174Z,22.62
2023-03-27T07:36:22.987Z,22.60
2023-03-27T07:41:27.425Z,22.61
2023-03-27T07:46:29.043Z,22.64
2023-03-27T07:51:30.431Z,22.63
2023-03-27T07:56:33.312Z,22.63
2023-03-27T08:01:35.605Z,22.67
2023-03-27T08:06:37.128Z,22.61
2023-03-27T08:11:39.500Z,22.62
2023-03-27T08:16:41.025Z,22.63
2023-03-27T08:21:42.555Z,22.61
2023-03-27T08:26:43.935Z,22.60
2023-03-27T08:31:45.699Z,22.63
2023-03-27T08:36:47.077Z,22.61
2023-03-27T08:41:54.862Z,22.59
2023-03-27T08:47:15.534Z,22.58
2023-03-27T08:52:19.401Z,22.59
2023-03-27T08:57:21.911Z,22.60
2023-03-27T09:02:50.904Z,22.63
2023-03-27T09:08:16.385Z,22.61
2023-03-27T09:13:21.759Z,22.59
2023-03-27T09:18:35.694Z,22.64
2023-03-27T09:23:42.729Z,22.63
2023-03-27T09:28:53.569Z,22.61
2023-03-27T09:33:55.594Z,22.62
2023-03-27T09:39:12.461Z,22.63
2023-03-27T09:44:25.272Z,22.61
2023-03-27T09:49:27.711Z,22.59
2023-03-27T09:54:29.143Z,22.63
2023-03-27T09:59:38.485Z,22.63
2023-03-27T10:04:40.094Z,22.65
2023-03-27T10:09:41.551Z,22.64
2023-03-27T10:14:47.565Z,22.66
2023-03-27T10:19:49.015Z,22.65
2023-03-27T10:24:51.120Z,22.68
2023-03-27T10:29:52.990Z,22.69
2023-03-27T10:34:55.640Z,22.67
2023-03-27T10:39:58.951Z,22.63
2023-03-27T10:45:00.341Z,22.65
2023-03-27T10:50:12.417Z,22.66
2023-03-27T10:55:41.484Z,22.67
2023-03-27T11:00:46.404Z,22.68
2023-03-27T11:05:48.521Z,22.69
2023-03-27T11:10:50.809Z,22.64
2023-03-27T11:16:01.179Z,22.65
2023-03-27T11:21:04.671Z,22.66
2023-03-27T11:26:06.247Z,22.61
2023-03-27T11:31:27.782Z,22.67
2023-03-27T11:36:49.396Z,22.67
2023-03-27T11:41:59.034Z,22.67
2023-03-27T11:47:23.437Z,22.67
2023-03-27T11:52:46.746Z,22.63
2023-03-27T11:58:11.232Z,22.63
2023-03-27T12:03:13.931Z,22.61
2023-03-27T12:08:40.984Z,22.61
2023-03-27T12:14:18.546Z,22.61
2023-03-27T12:19:39.688Z,22.61
2023-03-27T12:24:59.650Z,22.62
2023-03-27T12:30:40.006Z,22.60
2023-03-27T12:35:47.058Z,22.63
2023-03-27T12:41:00.255Z,22.63
2023-03-27T12:46:12.968Z,22.63
2023-03-27T12:51:17.433Z,22.61
2023-03-27T12:56:24.798Z,22.63
2023-03-27T13:01:52.223Z,22.64
2023-03-27T13:07:04.934Z,22.63
2023-03-27T13:12:29.122Z,22.66
2023-03-27T13:17:48.755Z,22.61
2023-03-27T13:23:03.066Z,22.64
2023-03-27T13:28:28.148Z,22.66
2023-03-27T13:33:29.874Z,22.63
2023-03-27T13:38:48.682Z,22.64
2023-03-27T13:43:50.231Z,22.65
2023-03-27T13:48:57.747Z,22.68
2023-03-27T13:54:26.417Z,22.65
2023-03-27T13:59:57.581Z,22.66
2023-03-27T14:05:17.702Z,22.65
2023-03-27T14:10:51.445Z,22.63
2023-03-27T14:16:01.449Z,22.65
2023-03-27T14:21:03.874Z,22.62
2023-03-27T14:26:14.608Z,22.66
2023-03-27T14:31:19.082Z,22.59
2023-03-27T14:36:25.747Z,22.62
2023-03-27T14:41:27.256Z,22.65
2023-03-27T14:46:29.090Z,22.66
2023-03-27T14:51:36.840Z,22.67
2023-03-27T14:56:41.742Z,22.66
2023-03-27T15:01:43.267Z,22.65
2023-03-27T15:06:44.694Z,22.64
2023-03-27T15:11:53.994Z,22.64
2023-03-27T15:17:11.675Z,22.66
2023-03-27T15:22:17.444Z,22.66
2023-03-27T15:27:23.072Z,22.62
2023-03-27T15:32:29.072Z,22.61
2023-03-27T15:37:31.618Z,22.68
2023-03-27T15:42:47.888Z,22.63
2023-03-27T15:48:00.723Z,22.63
2023-03-27T15:53:03.065Z,22.65
2023-03-27T15:58:27.144Z,22.63
2023-03-27T16:03:30.937Z,22.67
2023-03-27T16:08:34.523Z,22.67
2023-03-27T16:13:41.775Z,22.67
2023-03-27T16:18:43.146Z,22.64
2023-03-27T16:23:44.603Z,22.63
2023-03-27T16:28:46.029Z,22.61
2023-03-27T16:33:47.430Z,22.61
2023-03-27T16:38:48.866Z,22.62
2023-03-27T16:43:50.306Z,22.63
2023-03-27T16:48:51.758Z,22.60
2023-03-27T16:53:53.139Z,22.59
2023-03-27T16:58:54.529Z,22.62
2023-03-27T17:03:56.254Z,22.61
2023-03-27T17:08:57.700Z,22.58
2023-03-27T17:13:59.079Z,22.63
2023-03-27T17:19:00.616Z,22.60
2023-03-27T17:24:02.042Z,22.59
2023-03-27T17:29:05.170Z,22.60
2023-03-27T17:34:07.286Z,22.60
2023-03-27T17:39:09.478Z,22.59
2023-03-27T17:44:11.597Z,22.57
2023-03-27T17:49:13.012Z,22.59
2023-03-27T17:54:14.426Z,22.59
2023-03-27T17:59:15.825Z,22.58
2023-03-27T18:04:17.922Z,22.56
2023-03-27T18:09:19.294Z,22.60
2023-03-27T18:14:20.723Z,22.59
2023-03-27T18:19:23.907Z,22.55
2023-03-27T18:24:25.297Z,22.55
2023-03-27T18:29:26.706Z,22.59
2023-03-27T18:34:28.117Z,22.59
2023-03-27T18:39:29.577Z,22.57
2023-03-27T18:44:30.960Z,22.56
2023-03-27T18:49:32.362Z,22.59
2023-03-27T18:54:33.808Z,22.60
2023-03-27T18:59:35.199Z,22.53
2023-03-27T19:04:36.592Z,22.54
2023-03-27T19:09:41.311Z,22.59
2023-03-27T19:14:43.354Z,22.58
2023-03-27T19:19:46.393Z,22.59
2023-03-27T19:24:48.093Z,22.56
2023-03-27T19:29:49.464Z,22.56
2023-03-27T19:34:51.026Z,22.58
2023-03-27T19:39:52.422Z,22.60
2023-03-27T19:44:54.718Z,22.58
2023-03-27T19:49:56.115Z,22.59
2023-03-27T19:54:57.805Z,22.58
2023-03-27T19:59:59.216Z,22.56
2023-03-27T20:05:00.874Z,22.55
2023-03-27T20:10:02.329Z,22.57
2023-03-27T20:15:11.859Z,22.54
2023-03-27T20:20:14.075Z,22.53
2023-03-27T20:25:15.779Z,22.53
2023-03-27T20:30:17.197Z,22.51
2023-03-27T20:35:24.189Z,22.55
2023-03-27T20:40:26.274Z,22.57
2023-03-27T20:45:30.624Z,22.54
2023-03-27T20:50:34.668Z,22.52
2023-03-27T20:55:41.412Z,22.56
2023-03-27T21:00:48.731Z,22.52
2023-03-27T21:05:50.469Z,22.52
2023-03-27T21:10:55.201Z,22.53
2023-03-27T21:15:56.988Z,22.53
2023-03-27T21:20:58.488Z,22.52
2023-03-27T21:26:00.092Z,22.53
2023-03-27T21:31:06.317Z,22.52
2023-03-27T21:36:08.321Z,22.55
2023-03-27T21:41:12.674Z,22.55
2023-03-27T21:46:14.079Z,22.57
2023-03-27T21:51:15.467Z,22.58
2023-03-27T21:56:16.863Z,22.54
2023-03-27T22:01:18.760Z,22.55
2023-03-27T22:06:20.305Z,22.53
2023-03-27T22:11:21.673Z,22.50
2023-03-27T22:16:23.108Z,22.51
2023-03-27T22:21:26.490Z,22.53
2023-03-27T22:26:31.612Z,22.52
2023-03-27T22:31:33.184Z,22.50
2023-03-27T22:36:34.656Z,22.53
2023-03-27T22:41:36.050Z,22.52
2023-03-27T22:46:37.573Z,22.51
2023-03-27T22:51:38.986Z,22.52
2023-03-27T22:56:40.511Z,22.48
2023-03-27T23:01:41.986Z,22.49
2023-03-27T23:06:43.462Z,22.52
2023-03-27T23:11:45.274Z,22.48
2023-03-27T23:16:46.715Z,22.52
2023-03-27T23:21:49.117Z,22.54
2023-03-27T23:26:50.787Z,22.50
2023-03-27T23:31:52.256Z,22.52
2023-03-27T23:36:53.858Z,22.56
2023-03-27T23:41:55.221Z,22.51
2023-03-27T23:46:56.663Z,22.52
2023-03-27T23:51:58.035Z,22.53
2023-03-27T23:56:59.565Z,22.52
